Kula, Hawaii
Current Conditions -  °F | °C
As of 7:54 AM on Saturday 20 Dec 2014 (Local Time) from PHOG Reporting Station
Smoke Smoke  
Wind Chill: 68°   Ceiling: Unl
Heat Index: 68°   Visibility: 10mi
Dew Point: 60°   Wind: 0mph
Humidity: 76%   Direction: NA
Pressure: 30.04"   Gusts: NA
Location:  20.77°N, 156.33°W
Report Text: PHOG 201754Z 00000KT 10SM FU CLR 20/16 A3004 RMK AO2 SLP178 T02000156 10211 20178 53018 $
Loading
Personal Weather Stations






























Interactive Weather Map New forecast layout! Learn more

10-Day Weather Forecast

Advertisements
Track Severe Weather on mobile